Upper Hill, Maryland
Current Conditions -  °F | °C
As of 6:22 PM on Wednesday 26 Nov 2014 (Local Time) from KWAL Reporting Station
Light Rain Light Rain  
Wind Chill: 29°   Ceiling: 800
Heat Index: 38°   Visibility: 6mi
Dew Point: 37°   Wind: 17mph
Humidity: 97%   Direction: 330°NNW
Pressure: 29.84"   Gusts: 26mph
Location:  38.1037°N, 75.7918°W
Report Text: KWAL 262322Z AUTO 33015G23KT 6SM -RA BR BKN008 OVC014 03/03 A2984 RMK AO2 CIG 007V012 P0000 T00330028
Loading
Personal Weather Stations






























Interactive Weather Map New forecast layout! Learn more

10-Day Weather Forecast

Advertisements
Track Severe Weather on mobile